Dwarkashish Heliport

IN-0175 · 古吉拉特邦, 印度

使用的METAR站距离机场98 km。
罗盘
风向 的 风向 190° 直升机
风: 12 kt, 4 beaufort
0 ft 1.000 2.000 3.000 4.000 5.000
Cloud Cloud
FEW 2.000
Cloud Cloud Cloud Cloud
SCT 2.500
METAR VAPR 171200Z 19012KT 5000 HZ FEW020 SCT025 30/27 Q0997 NOSIG

METAR Dwarkashish Heliport - IN-0175

Dwarkashish Heliport是,印度中的直升机场。 该机场位于纬度22,25463和经度68,96182。 这个机场没有ICAO代码,我们使用IN-0175作为参考。 机场在Mumbai FIR中。

该航空气象观测是针对Porbandar Airport在2024年7月17日 17:30, 当地时间进行的。

机场观察

风向为190°,速度为12 kt。

可见度为5 km。

有几云在2.000 ft的高度 和 疏云,零星散落的云朵在2.500 ft的高度。 没有观察到天花板。

当前天气为阴霾。 温度和风寒是30 °C。 热指数为39。 露点为27 °C,相对湿度为84%。 海平面上的气压为997 hPa (QNH)。

白天

今天,太阳从06:20升起,在19:40降落。 这适用于Dwarkashish Heliport,世界夏令时可能有所不同。 当地时间与世界标准时间之间的时差为+5 小时 30 分钟。 夏令时目前正在进行中。

公司介绍

我们没有关于这个机场的公司信息。

体会

到Vliegles.nl去找飞行课程,跳伞和其他飞行体验。 浏览页面,了解Dwarkashish Heliport附近所有可用的活动。 你也可以使用搜索功能来寻找你所在地附近的特定飞行课程、跳伞或其他飞行体验。

乌云

2.000 ft FEW 几云
2.500 ft SCT 疏云,零星散落的云朵

温度 & 天气

天气 阴霾
温度 30 °C
露点 27 °C
相对湿度 84%
热度指数 39 °C
Kp-index 2 (0-9)

白天

日出
06:18
中午
12:57
日落
19:36 (38m)

小工具

你想在你的网站上有一个关于Dwarkashish Heliport的当前航空天气(METAR)的小部件吗?

显示HTML代码
报告变更